sensor_id;sensor_type;location;lat;lon;timestamp;temperature;humidity
31263;DHT22;17892;52.080;9.006;2022-12-07T00:01:24;5.70;99.90
31263;DHT22;17892;52.080;9.006;2022-12-07T00:03:59;5.60;99.90
31263;DHT22;17892;52.080;9.006;2022-12-07T00:06:34;5.70;99.90
31263;DHT22;17892;52.080;9.006;2022-12-07T00:09:03;5.60;99.90
31263;DHT22;17892;52.080;9.006;2022-12-07T00:11:29;5.60;99.90
31263;DHT22;17892;52.080;9.006;2022-12-07T00:13:57;5.60;99.90
31263;DHT22;17892;52.080;9.006;2022-12-07T00:16:27;5.60;99.90
31263;DHT22;17892;52.080;9.006;2022-12-07T00:18:55;5.60;99.90
31263;DHT22;17892;52.080;9.006;2022-12-07T00:21:23;5.60;99.90
31263;DHT22;17892;52.080;9.006;2022-12-07T00:23:52;5.60;99.90
31263;DHT22;17892;52.080;9.006;2022-12-07T00:26:21;5.60;99.90
31263;DHT22;17892;52.080;9.006;2022-12-07T00:28:48;5.60;99.90
31263;DHT22;17892;52.080;9.006;2022-12-07T00:31:19;5.70;99.90
31263;DHT22;17892;52.080;9.006;2022-12-07T00:33:46;5.70;99.90
31263;DHT22;17892;52.080;9.006;2022-12-07T00:36:16;5.70;99.90
31263;DHT22;17892;52.080;9.006;2022-12-07T00:38:46;5.70;99.90
31263;DHT22;17892;52.080;9.006;2022-12-07T00:41:14;5.70;99.90
31263;DHT22;17892;52.080;9.006;2022-12-07T00:43:43;5.70;99.90
31263;DHT22;17892;52.080;9.006;2022-12-07T00:46:09;5.60;99.90
31263;DHT22;17892;52.080;9.006;2022-12-07T00:48:35;5.70;99.90
31263;DHT22;17892;52.080;9.006;2022-12-07T00:51:02;5.70;99.90
31263;DHT22;17892;52.080;9.006;2022-12-07T00:53:28;5.70;99.90
31263;DHT22;17892;52.080;9.006;2022-12-07T00:55:54;5.70;99.90
31263;DHT22;17892;52.080;9.006;2022-12-07T00:58:21;5.70;99.90
31263;DHT22;17892;52.080;9.006;2022-12-07T01:00:48;5.70;99.90
31263;DHT22;17892;52.080;9.006;2022-12-07T01:03:15;5.80;99.90
31263;DHT22;17892;52.080;9.006;2022-12-07T01:05:49;5.80;99.90
31263;DHT22;17892;52.080;9.006;2022-12-07T01:08:17;5.80;99.90
31263;DHT22;17892;52.080;9.006;2022-12-07T01:10:42;5.90;99.90
31263;DHT22;17892;52.080;9.006;2022-12-07T01:13:08;5.80;99.90
31263;DHT22;17892;52.080;9.006;2022-12-07T01:15:34;5.90;99.90
31263;DHT22;17892;52.080;9.006;2022-12-07T01:17:59;5.90;99.90
31263;DHT22;17892;52.080;9.006;2022-12-07T01:20:25;5.90;99.90
31263;DHT22;17892;52.080;9.006;2022-12-07T01:22:51;5.90;99.90
31263;DHT22;17892;52.080;9.006;2022-12-07T01:25:17;6.00;99.90
31263;DHT22;17892;52.080;9.006;2022-12-07T01:27:42;6.00;99.90
31263;DHT22;17892;52.080;9.006;2022-12-07T01:30:10;6.00;99.90
31263;DHT22;17892;52.080;9.006;2022-12-07T01:32:38;6.00;99.90
31263;DHT22;17892;52.080;9.006;2022-12-07T01:35:05;6.00;99.90
31263;DHT22;17892;52.080;9.006;2022-12-07T01:37:38;6.00;99.90
31263;DHT22;17892;52.080;9.006;2022-12-07T01:40:06;6.10;99.90
31263;DHT22;17892;52.080;9.006;2022-12-07T01:42:33;6.10;99.90
31263;DHT22;17892;52.080;9.006;2022-12-07T01:48:00;6.20;99.90
31263;DHT22;17892;52.080;9.006;2022-12-07T01:50:27;6.20;99.90
31263;DHT22;17892;52.080;9.006;2022-12-07T01:52:55;6.20;99.90
31263;DHT22;17892;52.080;9.006;2022-12-07T01:55:22;6.20;99.90
31263;DHT22;17892;52.080;9.006;2022-12-07T01:57:50;6.20;99.90
31263;DHT22;17892;52.080;9.006;2022-12-07T02:00:18;6.30;99.90
31263;DHT22;17892;52.080;9.006;2022-12-07T02:02:58;6.30;99.90
31263;DHT22;17892;52.080;9.006;2022-12-07T02:05:30;6.30;99.90
31263;DHT22;17892;52.080;9.006;2022-12-07T02:07:57;6.30;99.90
31263;DHT22;17892;52.080;9.006;2022-12-07T02:10:26;6.30;99.90
31263;DHT22;17892;52.080;9.006;2022-12-07T02:13:12;6.30;99.90
31263;DHT22;17892;52.080;9.006;2022-12-07T02:16:05;6.30;99.90
31263;DHT22;17892;52.080;9.006;2022-12-07T02:21:51;6.30;99.90
31263;DHT22;17892;52.080;9.006;2022-12-07T02:30:28;6.30;99.90
31263;DHT22;17892;52.080;9.006;2022-12-07T02:33:11;6.30;99.90
31263;DHT22;17892;52.080;9.006;2022-12-07T02:35:48;6.30;99.90
31263;DHT22;17892;52.080;9.006;2022-12-07T02:38:40;6.20;99.90
31263;DHT22;17892;52.080;9.006;2022-12-07T02:43:58;6.20;99.90
31263;DHT22;17892;52.080;9.006;2022-12-07T02:46:36;6.10;99.90
31263;DHT22;17892;52.080;9.006;2022-12-07T02:49:04;6.10;99.90
31263;DHT22;17892;52.080;9.006;2022-12-07T02:51:31;6.10;99.90
31263;DHT22;17892;52.080;9.006;2022-12-07T02:53:57;6.10;99.90
31263;DHT22;17892;52.080;9.006;2022-12-07T03:10:58;6.00;99.90
31263;DHT22;17892;52.080;9.006;2022-12-07T03:16:17;6.00;99.90
31263;DHT22;17892;52.080;9.006;2022-12-07T03:18:58;6.10;99.90
31263;DHT22;17892;52.080;9.006;2022-12-07T03:21:41;6.10;99.90
31263;DHT22;17892;52.080;9.006;2022-12-07T03:24:13;6.10;99.90
31263;DHT22;17892;52.080;9.006;2022-12-07T03:26:44;6.10;99.90
31263;DHT22;17892;52.080;9.006;2022-12-07T03:29:26;6.10;99.90
31263;DHT22;17892;52.080;9.006;2022-12-07T03:32:27;6.10;99.90
31263;DHT22;17892;52.080;9.006;2022-12-07T03:35:05;6.10;99.90
31263;DHT22;17892;52.080;9.006;2022-12-07T03:38:00;6.10;99.90
31263;DHT22;17892;52.080;9.006;2022-12-07T03:41:00;6.10;99.90
31263;DHT22;17892;52.080;9.006;2022-12-07T03:43:29;6.10;99.90
31263;DHT22;17892;52.080;9.006;2022-12-07T03:54:21;6.10;99.90
31263;DHT22;17892;52.080;9.006;2022-12-07T03:56:52;6.00;99.90
31263;DHT22;17892;52.080;9.006;2022-12-07T03:59:19;6.10;99.90
31263;DHT22;17892;52.080;9.006;2022-12-07T04:01:52;6.10;99.90
31263;DHT22;17892;52.080;9.006;2022-12-07T04:04:20;6.10;99.90
31263;DHT22;17892;52.080;9.006;2022-12-07T04:06:46;6.10;99.90
31263;DHT22;17892;52.080;9.006;2022-12-07T04:09:12;6.10;99.90
31263;DHT22;17892;52.080;9.006;2022-12-07T04:11:40;6.10;99.90
31263;DHT22;17892;52.080;9.006;2022-12-07T04:14:05;6.10;99.90
31263;DHT22;17892;52.080;9.006;2022-12-07T04:16:54;6.10;99.90
31263;DHT22;17892;52.080;9.006;2022-12-07T04:19:26;6.10;99.90
31263;DHT22;17892;52.080;9.006;2022-12-07T04:21:57;6.00;99.90
31263;DHT22;17892;52.080;9.006;2022-12-07T04:24:24;6.00;99.90
31263;DHT22;17892;52.080;9.006;2022-12-07T04:26:51;6.00;99.90
31263;DHT22;17892;52.080;9.006;2022-12-07T04:29:17;6.00;99.90
31263;DHT22;17892;52.080;9.006;2022-12-07T04:31:44;6.00;99.90
31263;DHT22;17892;52.080;9.006;2022-12-07T04:34:10;6.00;99.90
31263;DHT22;17892;52.080;9.006;2022-12-07T04:36:37;6.00;99.90
31263;DHT22;17892;52.080;9.006;2022-12-07T04:39:05;5.90;99.90
31263;DHT22;17892;52.080;9.006;2022-12-07T04:41:32;6.00;99.90
31263;DHT22;17892;52.080;9.006;2022-12-07T04:44:00;6.00;99.90
31263;DHT22;17892;52.080;9.006;2022-12-07T04:46:31;6.00;99.90
31263;DHT22;17892;52.080;9.006;2022-12-07T04:48:57;6.00;99.90
31263;DHT22;17892;52.080;9.006;2022-12-07T04:51:25;5.90;99.90
31263;DHT22;17892;52.080;9.006;2022-12-07T04:53:54;6.00;99.90
31263;DHT22;17892;52.080;9.006;2022-12-07T04:56:21;6.00;99.90
31263;DHT22;17892;52.080;9.006;2022-12-07T04:58:48;5.90;99.90
31263;DHT22;17892;52.080;9.006;2022-12-07T05:01:15;5.90;99.90
31263;DHT22;17892;52.080;9.006;2022-12-07T05:03:42;5.90;99.90
31263;DHT22;17892;52.080;9.006;2022-12-07T05:06:10;5.90;99.90
31263;DHT22;17892;52.080;9.006;2022-12-07T05:08:37;5.90;99.90
31263;DHT22;17892;52.080;9.006;2022-12-07T05:11:04;5.90;99.90
31263;DHT22;17892;52.080;9.006;2022-12-07T05:13:31;5.90;99.90
31263;DHT22;17892;52.080;9.006;2022-12-07T05:15:57;5.90;99.90
31263;DHT22;17892;52.080;9.006;2022-12-07T05:18:23;5.90;99.90
31263;DHT22;17892;52.080;9.006;2022-12-07T05:20:49;5.90;99.90
31263;DHT22;17892;52.080;9.006;2022-12-07T05:23:16;5.90;99.90
31263;DHT22;17892;52.080;9.006;2022-12-07T05:25:42;5.90;99.90
31263;DHT22;17892;52.080;9.006;2022-12-07T05:28:08;5.90;99.90
31263;DHT22;17892;52.080;9.006;2022-12-07T05:30:34;5.90;99.90
31263;DHT22;17892;52.080;9.006;2022-12-07T05:33:00;5.90;99.90
31263;DHT22;17892;52.080;9.006;2022-12-07T05:35:25;5.80;99.90
31263;DHT22;17892;52.080;9.006;2022-12-07T05:37:51;5.80;99.90
31263;DHT22;17892;52.080;9.006;2022-12-07T05:40:17;5.80;99.90
31263;DHT22;17892;52.080;9.006;2022-12-07T05:42:44;5.80;99.90
31263;DHT22;17892;52.080;9.006;2022-12-07T05:45:10;5.80;99.90
31263;DHT22;17892;52.080;9.006;2022-12-07T05:47:38;5.70;99.90
31263;DHT22;17892;52.080;9.006;2022-12-07T05:50:04;5.70;99.90
31263;DHT22;17892;52.080;9.006;2022-12-07T05:52:31;5.70;99.90
31263;DHT22;17892;52.080;9.006;2022-12-07T05:54:56;5.70;99.90
31263;DHT22;17892;52.080;9.006;2022-12-07T05:57:22;5.70;99.90
31263;DHT22;17892;52.080;9.006;2022-12-07T05:59:48;5.70;99.90
31263;DHT22;17892;52.080;9.006;2022-12-07T06:02:15;5.70;99.90
31263;DHT22;17892;52.080;9.006;2022-12-07T06:04:46;5.70;99.90
31263;DHT22;17892;52.080;9.006;2022-12-07T06:07:14;5.70;99.90
31263;DHT22;17892;52.080;9.006;2022-12-07T06:09:40;5.70;99.90
31263;DHT22;17892;52.080;9.006;2022-12-07T06:12:09;5.70;99.90
31263;DHT22;17892;52.080;9.006;2022-12-07T06:14:55;5.70;99.90
31263;DHT22;17892;52.080;9.006;2022-12-07T06:17:21;5.60;99.90
31263;DHT22;17892;52.080;9.006;2022-12-07T06:19:46;5.60;99.90
31263;DHT22;17892;52.080;9.006;2022-12-07T06:22:12;5.60;99.90
31263;DHT22;17892;52.080;9.006;2022-12-07T06:24:39;5.60;99.90
31263;DHT22;17892;52.080;9.006;2022-12-07T06:27:05;5.60;99.90
31263;DHT22;17892;52.080;9.006;2022-12-07T06:29:31;5.60;99.90
31263;DHT22;17892;52.080;9.006;2022-12-07T06:31:57;5.60;99.90
31263;DHT22;17892;52.080;9.006;2022-12-07T06:34:24;5.50;99.90
31263;DHT22;17892;52.080;9.006;2022-12-07T06:36:51;5.50;99.90
31263;DHT22;17892;52.080;9.006;2022-12-07T06:39:20;5.50;99.90
31263;DHT22;17892;52.080;9.006;2022-12-07T06:41:47;5.50;99.90
31263;DHT22;17892;52.080;9.006;2022-12-07T06:44:13;5.50;99.90
31263;DHT22;17892;52.080;9.006;2022-12-07T06:46:38;5.50;99.90
31263;DHT22;17892;52.080;9.006;2022-12-07T06:49:05;5.50;99.90
31263;DHT22;17892;52.080;9.006;2022-12-07T06:51:32;5.50;99.90
31263;DHT22;17892;52.080;9.006;2022-12-07T06:53:58;5.50;99.90
31263;DHT22;17892;52.080;9.006;2022-12-07T06:56:24;5.50;99.90
31263;DHT22;17892;52.080;9.006;2022-12-07T06:58:49;5.50;99.90
31263;DHT22;17892;52.080;9.006;2022-12-07T07:01:17;5.50;99.90
31263;DHT22;17892;52.080;9.006;2022-12-07T07:03:44;5.50;99.90
31263;DHT22;17892;52.080;9.006;2022-12-07T07:06:11;5.50;99.90
31263;DHT22;17892;52.080;9.006;2022-12-07T07:08:38;5.50;99.90
31263;DHT22;17892;52.080;9.006;2022-12-07T07:11:05;5.50;99.90
31263;DHT22;17892;52.080;9.006;2022-12-07T07:13:31;5.50;99.90
31263;DHT22;17892;52.080;9.006;2022-12-07T07:15:58;5.50;99.90
31263;DHT22;17892;52.080;9.006;2022-12-07T07:18:24;5.50;99.90
31263;DHT22;17892;52.080;9.006;2022-12-07T07:20:51;5.50;99.90
31263;DHT22;17892;52.080;9.006;2022-12-07T07:23:17;5.50;99.90
31263;DHT22;17892;52.080;9.006;2022-12-07T07:25:44;5.50;99.90
31263;DHT22;17892;52.080;9.006;2022-12-07T07:28:10;5.50;99.90
31263;DHT22;17892;52.080;9.006;2022-12-07T07:30:37;5.50;99.90
31263;DHT22;17892;52.080;9.006;2022-12-07T07:33:04;5.50;99.90
31263;DHT22;17892;52.080;9.006;2022-12-07T07:35:32;5.50;99.90
31263;DHT22;17892;52.080;9.006;2022-12-07T07:37:59;5.50;99.90
31263;DHT22;17892;52.080;9.006;2022-12-07T07:40:25;5.50;99.90
31263;DHT22;17892;52.080;9.006;2022-12-07T07:42:53;5.50;99.90
31263;DHT22;17892;52.080;9.006;2022-12-07T07:45:20;5.50;99.90
31263;DHT22;17892;52.080;9.006;2022-12-07T07:47:47;5.50;99.90
31263;DHT22;17892;52.080;9.006;2022-12-07T07:50:14;5.50;99.90
31263;DHT22;17892;52.080;9.006;2022-12-07T07:52:40;5.50;99.90
31263;DHT22;17892;52.080;9.006;2022-12-07T07:55:06;5.60;99.90
31263;DHT22;17892;52.080;9.006;2022-12-07T07:57:35;5.60;99.90
31263;DHT22;17892;52.080;9.006;2022-12-07T08:00:04;5.60;99.90
31263;DHT22;17892;52.080;9.006;2022-12-07T08:02:31;5.60;99.90
31263;DHT22;17892;52.080;9.006;2022-12-07T08:04:57;5.60;99.90
31263;DHT22;17892;52.080;9.006;2022-12-07T08:07:23;5.60;99.90
31263;DHT22;17892;52.080;9.006;2022-12-07T08:09:49;5.60;99.90
31263;DHT22;17892;52.080;9.006;2022-12-07T08:12:14;5.60;99.90
31263;DHT22;17892;52.080;9.006;2022-12-07T08:14:40;5.60;99.90
31263;DHT22;17892;52.080;9.006;2022-12-07T08:17:06;5.60;99.90
31263;DHT22;17892;52.080;9.006;2022-12-07T08:19:32;5.60;99.90
31263;DHT22;17892;52.080;9.006;2022-12-07T08:21:58;5.60;99.90
31263;DHT22;17892;52.080;9.006;2022-12-07T08:24:24;5.60;99.90
31263;DHT22;17892;52.080;9.006;2022-12-07T08:26:50;5.50;99.90
31263;DHT22;17892;52.080;9.006;2022-12-07T08:29:16;5.50;99.90
31263;DHT22;17892;52.080;9.006;2022-12-07T08:31:42;5.50;99.90
31263;DHT22;17892;52.080;9.006;2022-12-07T08:34:10;5.50;99.90
31263;DHT22;17892;52.080;9.006;2022-12-07T08:36:37;5.40;99.90
31263;DHT22;17892;52.080;9.006;2022-12-07T08:39:03;5.40;99.90
31263;DHT22;17892;52.080;9.006;2022-12-07T08:41:29;5.40;99.90
31263;DHT22;17892;52.080;9.006;2022-12-07T08:43:55;5.40;99.90
31263;DHT22;17892;52.080;9.006;2022-12-07T08:46:35;5.40;99.90
31263;DHT22;17892;52.080;9.006;2022-12-07T08:49:18;5.40;99.90
31263;DHT22;17892;52.080;9.006;2022-12-07T08:51:46;5.40;99.90
31263;DHT22;17892;52.080;9.006;2022-12-07T08:54:15;5.50;99.90
31263;DHT22;17892;52.080;9.006;2022-12-07T08:56:43;5.50;99.90
31263;DHT22;17892;52.080;9.006;2022-12-07T08:59:09;5.50;99.90
31263;DHT22;17892;52.080;9.006;2022-12-07T09:01:37;5.50;99.90
31263;DHT22;17892;52.080;9.006;2022-12-07T09:04:02;5.60;99.90
31263;DHT22;17892;52.080;9.006;2022-12-07T09:06:28;5.60;99.90
31263;DHT22;17892;52.080;9.006;2022-12-07T09:08:57;5.60;99.90
31263;DHT22;17892;52.080;9.006;2022-12-07T09:11:23;5.70;99.90
31263;DHT22;17892;52.080;9.006;2022-12-07T09:13:49;5.70;99.90
31263;DHT22;17892;52.080;9.006;2022-12-07T09:16:15;5.70;99.90
31263;DHT22;17892;52.080;9.006;2022-12-07T09:18:41;5.80;99.90
31263;DHT22;17892;52.080;9.006;2022-12-07T09:21:07;5.80;99.90
31263;DHT22;17892;52.080;9.006;2022-12-07T09:23:33;5.80;99.90
31263;DHT22;17892;52.080;9.006;2022-12-07T09:26:00;5.80;99.90
31263;DHT22;17892;52.080;9.006;2022-12-07T09:28:26;5.90;99.90
31263;DHT22;17892;52.080;9.006;2022-12-07T09:30:52;5.90;99.90
31263;DHT22;17892;52.080;9.006;2022-12-07T09:33:17;5.90;99.90
31263;DHT22;17892;52.080;9.006;2022-12-07T09:35:48;5.90;99.90
31263;DHT22;17892;52.080;9.006;2022-12-07T09:38:15;5.90;99.90
31263;DHT22;17892;52.080;9.006;2022-12-07T09:40:41;5.90;99.90
31263;DHT22;17892;52.080;9.006;2022-12-07T09:43:18;5.90;99.90
31263;DHT22;17892;52.080;9.006;2022-12-07T09:45:47;5.90;99.90
31263;DHT22;17892;52.080;9.006;2022-12-07T09:51:20;6.00;99.90
31263;DHT22;17892;52.080;9.006;2022-12-07T09:53:48;6.00;99.90
31263;DHT22;17892;52.080;9.006;2022-12-07T09:56:16;6.00;99.90
31263;DHT22;17892;52.080;9.006;2022-12-07T09:58:43;6.00;99.90
31263;DHT22;17892;52.080;9.006;2022-12-07T10:06:16;6.20;99.90
31263;DHT22;17892;52.080;9.006;2022-12-07T10:08:42;6.30;99.90
31263;DHT22;17892;52.080;9.006;2022-12-07T10:11:09;6.40;99.90
31263;DHT22;17892;52.080;9.006;2022-12-07T10:13:47;6.50;99.90
31263;DHT22;17892;52.080;9.006;2022-12-07T10:16:38;6.60;99.90
31263;DHT22;17892;52.080;9.006;2022-12-07T10:19:24;6.70;99.90
31263;DHT22;17892;52.080;9.006;2022-12-07T10:24:31;6.80;99.90
31263;DHT22;17892;52.080;9.006;2022-12-07T10:26:57;6.80;99.90
31263;DHT22;17892;52.080;9.006;2022-12-07T10:29:39;6.90;99.90
31263;DHT22;17892;52.080;9.006;2022-12-07T10:34:39;6.90;99.90
31263;DHT22;17892;52.080;9.006;2022-12-07T10:37:17;7.00;99.90
31263;DHT22;17892;52.080;9.006;2022-12-07T10:39:53;6.90;99.90
31263;DHT22;17892;52.080;9.006;2022-12-07T10:44:46;6.90;99.90
31263;DHT22;17892;52.080;9.006;2022-12-07T11:05:52;6.80;99.90
31263;DHT22;17892;52.080;9.006;2022-12-07T11:28:42;6.60;99.90
31263;DHT22;17892;52.080;9.006;2022-12-07T11:37:18;6.80;99.90
31263;DHT22;17892;52.080;9.006;2022-12-07T11:39:55;6.90;99.90
31263;DHT22;17892;52.080;9.006;2022-12-07T11:42:40;7.00;99.90
31263;DHT22;17892;52.080;9.006;2022-12-07T11:47:47;7.10;99.90
31263;DHT22;17892;52.080;9.006;2022-12-07T11:53:14;7.10;99.90
31263;DHT22;17892;52.080;9.006;2022-12-07T12:01:26;7.10;99.90
31263;DHT22;17892;52.080;9.006;2022-12-07T12:06:36;7.10;99.90
31263;DHT22;17892;52.080;9.006;2022-12-07T12:09:13;7.10;99.90
31263;DHT22;17892;52.080;9.006;2022-12-07T12:15:03;7.10;99.90
31263;DHT22;17892;52.080;9.006;2022-12-07T12:20:35;7.10;99.90
31263;DHT22;17892;52.080;9.006;2022-12-07T12:23:11;7.00;99.90
31263;DHT22;17892;52.080;9.006;2022-12-07T12:28:27;7.00;99.90
31263;DHT22;17892;52.080;9.006;2022-12-07T12:31:15;7.10;99.90
31263;DHT22;17892;52.080;9.006;2022-12-07T12:33:55;7.10;99.90
31263;DHT22;17892;52.080;9.006;2022-12-07T12:36:28;7.10;99.90
31263;DHT22;17892;52.080;9.006;2022-12-07T12:41:50;7.10;99.90
31263;DHT22;17892;52.080;9.006;2022-12-07T12:47:00;7.10;99.90
31263;DHT22;17892;52.080;9.006;2022-12-07T12:49:37;7.10;99.90
31263;DHT22;17892;52.080;9.006;2022-12-07T12:54:39;7.10;99.90
31263;DHT22;17892;52.080;9.006;2022-12-07T12:57:29;7.10;99.90
31263;DHT22;17892;52.080;9.006;2022-12-07T13:00:00;7.00;99.90
31263;DHT22;17892;52.080;9.006;2022-12-07T13:03:04;7.00;99.90
31263;DHT22;17892;52.080;9.006;2022-12-07T13:05:31;7.00;99.90
31263;DHT22;17892;52.080;9.006;2022-12-07T13:08:02;7.00;99.90
31263;DHT22;17892;52.080;9.006;2022-12-07T13:10:39;7.00;99.90
31263;DHT22;17892;52.080;9.006;2022-12-07T13:15:49;7.00;99.90
31263;DHT22;17892;52.080;9.006;2022-12-07T13:29:04;7.00;99.90
31263;DHT22;17892;52.080;9.006;2022-12-07T13:31:44;7.00;99.90
31263;DHT22;17892;52.080;9.006;2022-12-07T13:37:11;7.00;99.90
31263;DHT22;17892;52.080;9.006;2022-12-07T13:40:14;7.10;99.90
31263;DHT22;17892;52.080;9.006;2022-12-07T13:42:44;7.10;99.90
31263;DHT22;17892;52.080;9.006;2022-12-07T13:45:25;7.10;99.90
31263;DHT22;17892;52.080;9.006;2022-12-07T13:48:41;7.20;99.90
31263;DHT22;17892;52.080;9.006;2022-12-07T13:51:36;7.20;99.90
31263;DHT22;17892;52.080;9.006;2022-12-07T13:54:10;7.20;99.90
31263;DHT22;17892;52.080;9.006;2022-12-07T13:56:37;7.30;99.90
31263;DHT22;17892;52.080;9.006;2022-12-07T13:59:10;7.30;99.90
31263;DHT22;17892;52.080;9.006;2022-12-07T14:01:39;7.30;99.90
31263;DHT22;17892;52.080;9.006;2022-12-07T14:04:37;7.30;99.90
31263;DHT22;17892;52.080;9.006;2022-12-07T14:07:32;7.30;99.90
31263;DHT22;17892;52.080;9.006;2022-12-07T14:10:02;7.30;99.90
31263;DHT22;17892;52.080;9.006;2022-12-07T14:12:32;7.20;99.90
31263;DHT22;17892;52.080;9.006;2022-12-07T14:15:00;7.20;99.90
31263;DHT22;17892;52.080;9.006;2022-12-07T14:17:27;7.20;99.90
31263;DHT22;17892;52.080;9.006;2022-12-07T14:19:54;7.20;99.90
31263;DHT22;17892;52.080;9.006;2022-12-07T14:22:33;7.20;99.90
31263;DHT22;17892;52.080;9.006;2022-12-07T14:27:53;7.10;99.90
31263;DHT22;17892;52.080;9.006;2022-12-07T14:30:28;7.10;99.90
31263;DHT22;17892;52.080;9.006;2022-12-07T14:32:58;7.10;99.90
31263;DHT22;17892;52.080;9.006;2022-12-07T14:35:26;7.00;99.90
31263;DHT22;17892;52.080;9.006;2022-12-07T14:37:52;7.00;99.90
31263;DHT22;17892;52.080;9.006;2022-12-07T14:40:20;6.90;99.90
31263;DHT22;17892;52.080;9.006;2022-12-07T14:42:49;6.90;99.90
31263;DHT22;17892;52.080;9.006;2022-12-07T14:45:19;6.90;99.80
31263;DHT22;17892;52.080;9.006;2022-12-07T14:47:46;6.90;99.90
31263;DHT22;17892;52.080;9.006;2022-12-07T14:50:17;6.80;99.90
31263;DHT22;17892;52.080;9.006;2022-12-07T14:52:48;6.80;99.90
31263;DHT22;17892;52.080;9.006;2022-12-07T14:55:23;6.70;99.90
31263;DHT22;17892;52.080;9.006;2022-12-07T14:57:51;6.70;99.90
31263;DHT22;17892;52.080;9.006;2022-12-07T15:00:18;6.70;99.90
31263;DHT22;17892;52.080;9.006;2022-12-07T15:02:46;6.60;99.90
31263;DHT22;17892;52.080;9.006;2022-12-07T15:05:13;6.60;99.90
31263;DHT22;17892;52.080;9.006;2022-12-07T15:07:38;6.50;99.90
31263;DHT22;17892;52.080;9.006;2022-12-07T15:10:06;6.50;99.90
31263;DHT22;17892;52.080;9.006;2022-12-07T15:12:34;6.40;99.90
31263;DHT22;17892;52.080;9.006;2022-12-07T15:15:00;6.30;99.90
31263;DHT22;17892;52.080;9.006;2022-12-07T15:17:27;6.30;99.90
31263;DHT22;17892;52.080;9.006;2022-12-07T15:19:52;6.20;99.90
31263;DHT22;17892;52.080;9.006;2022-12-07T15:22:18;6.20;99.90
31263;DHT22;17892;52.080;9.006;2022-12-07T15:24:44;6.10;99.90
31263;DHT22;17892;52.080;9.006;2022-12-07T15:27:09;6.10;99.90
31263;DHT22;17892;52.080;9.006;2022-12-07T15:29:35;6.00;99.90
31263;DHT22;17892;52.080;9.006;2022-12-07T15:32:01;6.00;99.90
31263;DHT22;17892;52.080;9.006;2022-12-07T15:34:27;6.00;99.90
31263;DHT22;17892;52.080;9.006;2022-12-07T15:36:54;5.90;99.90
31263;DHT22;17892;52.080;9.006;2022-12-07T15:39:20;5.90;99.90
31263;DHT22;17892;52.080;9.006;2022-12-07T15:41:47;5.90;99.90
31263;DHT22;17892;52.080;9.006;2022-12-07T15:44:13;5.90;99.90
31263;DHT22;17892;52.080;9.006;2022-12-07T15:46:58;5.90;99.90
31263;DHT22;17892;52.080;9.006;2022-12-07T15:49:24;5.80;99.90
31263;DHT22;17892;52.080;9.006;2022-12-07T15:51:50;5.80;99.90
31263;DHT22;17892;52.080;9.006;2022-12-07T15:54:20;5.80;99.90
31263;DHT22;17892;52.080;9.006;2022-12-07T15:56:54;5.80;99.90
31263;DHT22;17892;52.080;9.006;2022-12-07T15:59:21;5.80;99.90
31263;DHT22;17892;52.080;9.006;2022-12-07T16:01:47;5.80;99.90
31263;DHT22;17892;52.080;9.006;2022-12-07T16:04:13;5.80;99.90
31263;DHT22;17892;52.080;9.006;2022-12-07T16:06:39;5.80;99.90
31263;DHT22;17892;52.080;9.006;2022-12-07T16:09:05;5.80;99.90
31263;DHT22;17892;52.080;9.006;2022-12-07T16:11:32;5.80;99.90
31263;DHT22;17892;52.080;9.006;2022-12-07T16:13:58;5.80;99.90
31263;DHT22;17892;52.080;9.006;2022-12-07T16:16:24;5.80;99.90
31263;DHT22;17892;52.080;9.006;2022-12-07T16:18:50;5.80;99.90
31263;DHT22;17892;52.080;9.006;2022-12-07T16:21:17;5.80;99.90
31263;DHT22;17892;52.080;9.006;2022-12-07T16:23:43;5.80;99.90
31263;DHT22;17892;52.080;9.006;2022-12-07T16:26:14;5.80;99.90
31263;DHT22;17892;52.080;9.006;2022-12-07T16:28:42;5.70;99.90
31263;DHT22;17892;52.080;9.006;2022-12-07T16:31:13;5.70;99.90
31263;DHT22;17892;52.080;9.006;2022-12-07T16:33:41;5.60;99.90
31263;DHT22;17892;52.080;9.006;2022-12-07T16:36:09;5.50;99.90
31263;DHT22;17892;52.080;9.006;2022-12-07T16:38:36;5.40;99.90
31263;DHT22;17892;52.080;9.006;2022-12-07T16:41:03;5.30;99.90
31263;DHT22;17892;52.080;9.006;2022-12-07T16:43:30;5.20;99.90
31263;DHT22;17892;52.080;9.006;2022-12-07T16:45:56;5.10;99.90
31263;DHT22;17892;52.080;9.006;2022-12-07T16:48:21;5.10;99.90
31263;DHT22;17892;52.080;9.006;2022-12-07T16:50:47;5.10;99.90
31263;DHT22;17892;52.080;9.006;2022-12-07T16:53:14;5.10;99.90
31263;DHT22;17892;52.080;9.006;2022-12-07T16:55:43;5.10;99.90
31263;DHT22;17892;52.080;9.006;2022-12-07T16:58:10;5.10;99.90
31263;DHT22;17892;52.080;9.006;2022-12-07T17:00:37;5.10;99.90
31263;DHT22;17892;52.080;9.006;2022-12-07T17:03:04;5.10;99.90
31263;DHT22;17892;52.080;9.006;2022-12-07T17:05:30;5.10;99.90
31263;DHT22;17892;52.080;9.006;2022-12-07T17:07:56;5.10;99.90
31263;DHT22;17892;52.080;9.006;2022-12-07T17:10:23;5.10;99.90
31263;DHT22;17892;52.080;9.006;2022-12-07T17:12:50;5.10;99.90
31263;DHT22;17892;52.080;9.006;2022-12-07T17:15:17;5.10;99.90
31263;DHT22;17892;52.080;9.006;2022-12-07T17:17:50;5.10;99.90
31263;DHT22;17892;52.080;9.006;2022-12-07T17:20:18;5.10;99.90
31263;DHT22;17892;52.080;9.006;2022-12-07T17:22:46;5.10;99.90
31263;DHT22;17892;52.080;9.006;2022-12-07T17:25:12;5.00;99.90
31263;DHT22;17892;52.080;9.006;2022-12-07T17:27:38;5.00;99.90
31263;DHT22;17892;52.080;9.006;2022-12-07T17:30:05;5.00;99.90
31263;DHT22;17892;52.080;9.006;2022-12-07T17:32:31;5.00;99.90
31263;DHT22;17892;52.080;9.006;2022-12-07T17:34:57;5.00;99.90
31263;DHT22;17892;52.080;9.006;2022-12-07T17:37:23;5.00;99.90
31263;DHT22;17892;52.080;9.006;2022-12-07T17:39:49;5.00;99.90
31263;DHT22;17892;52.080;9.006;2022-12-07T17:42:15;5.00;99.90
31263;DHT22;17892;52.080;9.006;2022-12-07T17:44:59;5.00;99.90
31263;DHT22;17892;52.080;9.006;2022-12-07T17:47:24;5.00;99.90
31263;DHT22;17892;52.080;9.006;2022-12-07T17:49:50;5.00;99.90
31263;DHT22;17892;52.080;9.006;2022-12-07T17:52:16;5.00;99.90
31263;DHT22;17892;52.080;9.006;2022-12-07T17:55:00;5.00;99.90
31263;DHT22;17892;52.080;9.006;2022-12-07T17:57:26;5.00;99.90
31263;DHT22;17892;52.080;9.006;2022-12-07T17:59:52;5.00;99.90
31263;DHT22;17892;52.080;9.006;2022-12-07T18:02:20;5.00;99.90
31263;DHT22;17892;52.080;9.006;2022-12-07T18:04:46;5.00;99.90
31263;DHT22;17892;52.080;9.006;2022-12-07T18:07:12;5.00;99.90
31263;DHT22;17892;52.080;9.006;2022-12-07T18:09:38;5.00;99.90
31263;DHT22;17892;52.080;9.006;2022-12-07T18:12:07;5.00;99.90
31263;DHT22;17892;52.080;9.006;2022-12-07T18:14:33;5.10;99.90
31263;DHT22;17892;52.080;9.006;2022-12-07T18:16:59;5.10;99.90
31263;DHT22;17892;52.080;9.006;2022-12-07T18:19:25;5.10;99.90
31263;DHT22;17892;52.080;9.006;2022-12-07T18:21:51;5.10;99.90
31263;DHT22;17892;52.080;9.006;2022-12-07T18:24:17;5.10;99.90
31263;DHT22;17892;52.080;9.006;2022-12-07T18:26:44;5.10;99.90
31263;DHT22;17892;52.080;9.006;2022-12-07T18:29:13;5.10;99.90
31263;DHT22;17892;52.080;9.006;2022-12-07T18:31:40;5.10;99.90